48.7°F
Current conditions from King Hill
Updated every 5 minutes
 
  Tuesday September 16, 2014

Station Historical Data
Daily Summary for May 31, 2011 Units:  Both    English   Metric
« Previous Day
Next Day »
Daily Weekly Monthly Yearly Custom
  High: Low: Average:
Temperature: 83.6 °F /  28.7 °C 55.9 °F /  13.3 °C 70.3 °F /  21.3 °C
Dew Point: 67.8 °F /  19.9 °C 53.9 °F /  12.2 °C 60.3 °F /  15.7 °C
Humidity: 96% 46% 73%
Wind Speed: 5.0mph /  8km/h - 1.8mph /  2.9km/h
Wind Gust: 12.0mph /  19.3km/h - -
Wind- - SSW
Pressure: 30.18 in /  1021.9 hPa 29.96 in /  1014.4 hPa -
Precipitation: 0.00 in /  0 mm    
Historical Graphs
 
 
Tabular Data for May 31, 2011
Time Temperature Dew Point Pressure Wind Wind Speed Wind Gust Humidity Daily Rainfall
00:00 56.9 °F /  13.8 °C 54.6 °F /  12.6 °C 30.13in /  1020.2hPa Calm     92% 0.02in /  0.5mm
00:05 56.8 °F /  13.8 °C 54.5 °F /  12.5 °C 30.13in /  1020.2hPa Calm     92% 0.00in /  0mm
00:10 56.8 °F /  13.8 °C 54.5 °F /  12.5 °C 30.13in /  1020.2hPa Calm     92% 0.00in /  0mm
00:15 57.1 °F /  13.9 °C 54.8 °F /  12.7 °C 30.13in /  1020.2hPa Calm     92% 0.00in /  0mm
00:20 57.9 °F /  14.4 °C 55.6 °F /  13.1 °C 30.13in /  1020.2hPa Calm     92% 0.00in /  0mm
00:25 58.1 °F /  14.5 °C 55.5 °F /  13.1 °C 30.13in /  1020.2hPa Calm     91% 0.00in /  0mm
00:30 57.9 °F /  14.4 °C 55.0 °F /  12.8 °C 30.13in /  1020.2hPa Calm     90% 0.00in /  0mm
00:35 57.6 °F /  14.2 °C 54.7 °F /  12.6 °C 30.13in /  1020.2hPa Calm     90% 0.00in /  0mm
00:40 57.5 °F /  14.2 °C 54.9 °F /  12.7 °C 30.13in /  1020.2hPa Calm     91% 0.00in /  0mm
00:45 57.2 °F /  14 °C 54.6 °F /  12.6 °C 30.13in /  1020.2hPa Calm     91% 0.00in /  0mm
00:50 57.1 °F /  13.9 °C 54.5 °F /  12.5 °C 30.12in /  1019.9hPa Calm     91% 0.00in /  0mm
01:00 56.9 °F /  13.8 °C 54.6 °F /  12.6 °C 30.12in /  1019.9hPa Calm     92% 0.00in /  0mm
01:05 56.7 °F /  13.7 °C 54.4 °F /  12.4 °C 30.12in /  1019.9hPa Calm     92% 0.00in /  0mm
01:10 56.6 °F /  13.7 °C 54.3 °F /  12.4 °C 30.11in /  1019.5hPa Calm     92% 0.00in /  0mm
01:15 56.5 °F /  13.6 °C 54.2 °F /  12.3 °C 30.11in /  1019.5hPa Calm     92% 0.00in /  0mm
01:20 56.4 °F /  13.6 °C 54.1 °F /  12.3 °C 30.11in /  1019.5hPa Calm     92% 0.00in /  0mm
01:25 56.2 °F /  13.4 °C 53.9 °F /  12.2 °C 30.11in /  1019.5hPa Calm     92% 0.00in /  0mm
01:30 56.2 °F /  13.4 °C 54.2 °F /  12.3 °C 30.11in /  1019.5hPa Calm     93% 0.00in /  0mm
01:35 56.2 °F /  13.4 °C 54.2 °F /  12.3 °C 30.12in /  1019.9hPa Calm     93% 0.00in /  0mm
01:40 56.0 °F /  13.3 °C 54.0 °F /  12.2 °C 30.12in /  1019.9hPa Calm     93% 0.00in /  0mm
01:45 56.1 °F /  13.4 °C 54.4 °F /  12.4 °C 30.12in /  1019.9hPa Calm     94% 0.00in /  0mm
01:50 56.0 °F /  13.3 °C 54.3 °F /  12.4 °C 30.12in /  1019.9hPa Calm     94% 0.00in /  0mm
01:55 56.0 °F /  13.3 °C 54.3 °F /  12.4 °C 30.13in /  1020.2hPa Calm     94% 0.00in /  0mm
02:00 56.0 °F /  13.3 °C 54.3 °F /  12.4 °C 30.12in /  1019.9hPa Calm     94% 0.00in /  0mm
02:05 55.9 °F /  13.3 °C 54.2 °F /  12.3 °C 30.13in /  1020.2hPa Calm     94% 0.00in /  0mm
02:10 56.1 °F /  13.4 °C 54.4 °F /  12.4 °C 30.12in /  1019.9hPa Calm   1.0mph /  1.6km/h 94% 0.00in /  0mm
02:15 56.4 °F /  13.6 °C 55.0 °F /  12.8 °C 30.12in /  1019.9hPa NE 1.0mph /  1.6km/h 2.0mph /  3.2km/h 95% 0.00in /  0mm
02:20 56.8 °F /  13.8 °C 55.4 °F /  13 °C 30.12in /  1019.9hPa Calm   2.0mph /  3.2km/h 95% 0.00in /  0mm
02:25 57.1 °F /  13.9 °C 56.0 °F /  13.3 °C 30.12in /  1019.9hPa Calm   1.0mph /  1.6km/h 96% 0.00in /  0mm
02:30 57.2 °F /  14 °C 56.1 °F /  13.4 °C 30.12in /  1019.9hPa Calm     96% 0.00in /  0mm
02:35 57.2 °F /  14 °C 55.8 °F /  13.2 °C 30.11in /  1019.5hPa SSW 2.0mph /  3.2km/h 4.0mph /  6.4km/h 95% 0.00in /  0mm
02:40 57.1 °F /  13.9 °C 55.7 °F /  13.2 °C 30.12in /  1019.9hPa Calm   4.0mph /  6.4km/h 95% 0.00in /  0mm
02:45 57.1 °F /  13.9 °C 55.7 °F /  13.2 °C 30.12in /  1019.9hPa Calm   1.0mph /  1.6km/h 95% 0.00in /  0mm
02:50 57.1 °F /  13.9 °C 55.7 °F /  13.2 °C 30.13in /  1020.2hPa Calm     95% 0.00in /  0mm
02:55 57.5 °F /  14.2 °C 56.4 °F /  13.6 °C 30.13in /  1020.2hPa Calm     96% 0.00in /  0mm
03:00 57.4 °F /  14.1 °C 56.3 °F /  13.5 °C 30.13in /  1020.2hPa Calm     96% 0.00in /  0mm
03:05 57.3 °F /  14.1 °C 55.9 °F /  13.3 °C 30.13in /  1020.2hPa Calm     95% 0.00in /  0mm
03:10 57.3 °F /  14.1 °C 56.2 °F /  13.4 °C 30.13in /  1020.2hPa Calm     96% 0.00in /  0mm
03:15 57.5 °F /  14.2 °C 56.4 °F /  13.6 °C 30.13in /  1020.2hPa Calm   1.0mph /  1.6km/h 96% 0.00in /  0mm
03:20 57.6 °F /  14.2 °C 56.5 °F /  13.6 °C 30.13in /  1020.2hPa Calm   1.0mph /  1.6km/h 96% 0.00in /  0mm
03:25 57.7 °F /  14.3 °C 56.6 °F /  13.7 °C 30.13in /  1020.2hPa Calm   2.0mph /  3.2km/h 96% 0.00in /  0mm
03:30 57.7 °F /  14.3 °C 56.3 °F /  13.5 °C 30.13in /  1020.2hPa Calm   2.0mph /  3.2km/h 95% 0.00in /  0mm
03:35 57.8 °F /  14.3 °C 56.7 °F /  13.7 °C 30.13in /  1020.2hPa SSW 1.0mph /  1.6km/h 3.0mph /  4.8km/h 96% 0.00in /  0mm
03:40 57.8 °F /  14.3 °C 56.7 °F /  13.7 °C 30.13in /  1020.2hPa Calm   3.0mph /  4.8km/h 96% 0.00in /  0mm
03:45 57.8 °F /  14.3 °C 56.4 °F /  13.6 °C 30.13in /  1020.2hPa Calm     95% 0.00in /  0mm
03:50 57.8 °F /  14.3 °C 56.4 °F /  13.6 °C 30.14in /  1020.5hPa Calm     95% 0.00in /  0mm
03:55 57.8 °F /  14.3 °C 56.4 °F /  13.6 °C 30.14in /  1020.5hPa SSW 1.0mph /  1.6km/h 3.0mph /  4.8km/h 95% 0.00in /  0mm
04:00 57.8 °F /  14.3 °C 56.4 °F /  13.6 °C 30.13in /  1020.2hPa Calm   3.0mph /  4.8km/h 95% 0.00in /  0mm
04:05 57.7 °F /  14.3 °C 56.3 °F /  13.5 °C 30.13in /  1020.2hPa Calm   3.0mph /  4.8km/h 95% 0.00in /  0mm
04:10 57.6 °F /  14.2 °C 56.2 °F /  13.4 °C 30.13in /  1020.2hPa Calm     95% 0.00in /  0mm
04:15 57.7 °F /  14.3 °C 56.3 °F /  13.5 °C 30.14in /  1020.5hPa Calm     95% 0.00in /  0mm
04:20 57.7 °F /  14.3 °C 56.3 °F /  13.5 °C 30.14in /  1020.5hPa Calm     95% 0.00in /  0mm
04:25 57.7 °F /  14.3 °C 56.3 °F /  13.5 °C 30.14in /  1020.5hPa Calm     95% 0.00in /  0mm
04:30 57.9 °F /  14.4 °C 56.5 °F /  13.6 °C 30.14in /  1020.5hPa SSW 1.0mph /  1.6km/h 2.0mph /  3.2km/h 95% 0.00in /  0mm
04:35 58.0 °F /  14.4 °C 56.6 °F /  13.7 °C 30.14in /  1020.5hPa Calm   2.0mph /  3.2km/h 95% 0.00in /  0mm
04:40 58.0 °F /  14.4 °C 56.6 °F /  13.7 °C 30.15in /  1020.9hPa Calm   2.0mph /  3.2km/h 95% 0.00in /  0mm
04:45 58.2 °F /  14.6 °C 56.8 °F /  13.8 °C 30.14in /  1020.5hPa Calm     95% 0.00in /  0mm
04:50 58.3 °F /  14.6 °C 56.9 °F /  13.8 °C 30.14in /  1020.5hPa Calm     95% 0.00in /  0mm
04:55 58.5 °F /  14.7 °C 57.1 °F /  13.9 °C 30.14in /  1020.5hPa Calm     95% 0.00in /  0mm
05:00 58.7 °F /  14.8 °C 57.3 °F /  14.1 °C 30.14in /  1020.5hPa Calm     95% 0.00in /  0mm
05:05 58.7 °F /  14.8 °C 57.3 °F /  14.1 °C 30.14in /  1020.5hPa Calm     95% 0.00in /  0mm
05:10 58.7 °F /  14.8 °C 57.3 °F /  14.1 °C 30.14in /  1020.5hPa Calm   1.0mph /  1.6km/h 95% 0.00in /  0mm
05:20 58.6 °F /  14.8 °C 57.2 °F /  14 °C 30.15in /  1020.9hPa Calm     95% 0.00in /  0mm
05:25 58.6 °F /  14.8 °C 57.2 °F /  14 °C 30.15in /  1020.9hPa Calm     95% 0.00in /  0mm
05:30 58.5 °F /  14.7 °C 57.1 °F /  13.9 °C 30.15in /  1020.9hPa Calm     95% 0.00in /  0mm
05:35 58.5 °F /  14.7 °C 57.1 °F /  13.9 °C 30.15in /  1020.9hPa Calm     95% 0.00in /  0mm
05:40 58.5 °F /  14.7 °C 57.1 °F /  13.9 °C 30.15in /  1020.9hPa Calm     95% 0.00in /  0mm
05:45 58.6 °F /  14.8 °C 57.2 °F /  14 °C 30.15in /  1020.9hPa Calm     95% 0.00in /  0mm
05:50 58.7 °F /  14.8 °C 57.3 °F /  14.1 °C 30.16in /  1021.2hPa Calm     95% 0.00in /  0mm
06:00 58.9 °F /  14.9 °C 57.5 °F /  14.2 °C 30.15in /  1020.9hPa Calm     95% 0.00in /  0mm
06:05 59.0 °F /  15 °C 57.6 °F /  14.2 °C 30.16in /  1021.2hPa Calm   3.0mph /  4.8km/h 95% 0.00in /  0mm
06:10 59.0 °F /  15 °C 57.6 °F /  14.2 °C 30.15in /  1020.9hPa Calm   3.0mph /  4.8km/h 95% 0.00in /  0mm
06:15 59.1 °F /  15.1 °C 57.7 °F /  14.3 °C 30.15in /  1020.9hPa Calm   1.0mph /  1.6km/h 95% 0.00in /  0mm
06:20 59.1 °F /  15.1 °C 57.4 °F /  14.1 °C 30.16in /  1021.2hPa Calm   1.0mph /  1.6km/h 94% 0.00in /  0mm
06:25 59.0 °F /  15 °C 57.3 °F /  14.1 °C 30.16in /  1021.2hPa Calm   1.0mph /  1.6km/h 94% 0.00in /  0mm
06:30 59.0 °F /  15 °C 57.3 °F /  14.1 °C 30.16in /  1021.2hPa Calm   1.0mph /  1.6km/h 94% 0.00in /  0mm
06:35 59.0 °F /  15 °C 57.3 °F /  14.1 °C 30.16in /  1021.2hPa SSW 1.0mph /  1.6km/h 2.0mph /  3.2km/h 94% 0.00in /  0mm
06:40 59.0 °F /  15 °C 57.3 °F /  14.1 °C 30.17in /  1021.6hPa SSW 1.0mph /  1.6km/h 2.0mph /  3.2km/h 94% 0.00in /  0mm
06:45 59.0 °F /  15 °C 57.0 °F /  13.9 °C 30.17in /  1021.6hPa SSW 1.0mph /  1.6km/h 4.0mph /  6.4km/h 93% 0.00in /  0mm
06:50 59.2 °F /  15.1 °C 56.9 °F /  13.8 °C 30.17in /  1021.6hPa SSW 1.0mph /  1.6km/h 4.0mph /  6.4km/h 92% 0.00in /  0mm
06:55 59.8 °F /  15.4 °C 57.2 °F /  14 °C 30.17in /  1021.6hPa Calm   4.0mph /  6.4km/h 91% 0.00in /  0mm
07:00 60.2 °F /  15.7 °C 57.3 °F /  14.1 °C 30.17in /  1021.6hPa Calm   3.0mph /  4.8km/h 90% 0.00in /  0mm
07:05 60.5 °F /  15.8 °C 57.2 °F /  14 °C 30.17in /  1021.6hPa Calm   3.0mph /  4.8km/h 89% 0.00in /  0mm
07:10 60.6 °F /  15.9 °C 57.3 °F /  14.1 °C 30.17in /  1021.6hPa SSW 2.0mph /  3.2km/h 3.0mph /  4.8km/h 89% 0.00in /  0mm
07:15 60.6 °F /  15.9 °C 57.0 °F /  13.9 °C 30.17in /  1021.6hPa Calm   3.0mph /  4.8km/h 88% 0.00in /  0mm
07:20 60.7 °F /  15.9 °C 57.1 °F /  13.9 °C 30.17in /  1021.6hPa Calm   1.0mph /  1.6km/h 88% 0.00in /  0mm
07:25 61.0 °F /  16.1 °C 57.7 °F /  14.3 °C 30.17in /  1021.6hPa Calm   4.0mph /  6.4km/h 89% 0.00in /  0mm
07:30 61.4 °F /  16.3 °C 57.8 °F /  14.3 °C 30.17in /  1021.6hPa Calm   4.0mph /  6.4km/h 88% 0.00in /  0mm
07:35 62.0 °F /  16.7 °C 58.4 °F /  14.7 °C 30.17in /  1021.6hPa Calm   3.0mph /  4.8km/h 88% 0.00in /  0mm
07:40 62.5 °F /  16.9 °C 58.3 °F /  14.6 °C 30.18in /  1021.9hPa WSW 2.0mph /  3.2km/h 4.0mph /  6.4km/h 86% 0.00in /  0mm
07:45 62.9 °F /  17.2 °C 58.7 °F /  14.8 °C 30.17in /  1021.6hPa Calm   4.0mph /  6.4km/h 86% 0.00in /  0mm
07:50 63.2 °F /  17.3 °C 58.9 °F /  14.9 °C 30.18in /  1021.9hPa Calm   3.0mph /  4.8km/h 86% 0.00in /  0mm
07:55 63.7 °F /  17.6 °C 59.4 °F /  15.2 °C 30.18in /  1021.9hPa Calm   1.0mph /  1.6km/h 86% 0.00in /  0mm
08:00 64.4 °F /  18 °C 60.1 °F /  15.6 °C 30.18in /  1021.9hPa Calm   1.0mph /  1.6km/h 86% 0.00in /  0mm
08:05 64.9 °F /  18.3 °C 59.6 °F /  15.3 °C 30.18in /  1021.9hPa Calm   2.0mph /  3.2km/h 83% 0.00in /  0mm
08:10 65.5 °F /  18.6 °C 60.2 °F /  15.7 °C 30.18in /  1021.9hPa Calm   3.0mph /  4.8km/h 83% 0.00in /  0mm
08:15 66.1 °F /  18.9 °C 60.5 °F /  15.8 °C 30.18in /  1021.9hPa Calm   3.0mph /  4.8km/h 82% 0.00in /  0mm
08:20 66.3 °F /  19.1 °C 60.0 °F /  15.6 °C 30.18in /  1021.9hPa Calm   6.0mph /  9.7km/h 80% 0.00in /  0mm
08:25 66.4 °F /  19.1 °C 59.7 °F /  15.4 °C 30.18in /  1021.9hPa WSW 1.0mph /  1.6km/h 6.0mph /  9.7km/h 79% 0.00in /  0mm
08:30 66.9 °F /  19.4 °C 60.2 °F /  15.7 °C 30.18in /  1021.9hPa SSW 1.0mph /  1.6km/h 5.0mph /  8km/h 79% 0.00in /  0mm
08:35 67.6 °F /  19.8 °C 60.9 °F /  16.1 °C 30.18in /  1021.9hPa Calm   4.0mph /  6.4km/h 79% 0.00in /  0mm
08:40 68.4 °F /  20.2 °C 61.3 °F /  16.3 °C 30.18in /  1021.9hPa Calm   3.0mph /  4.8km/h 78% 0.00in /  0mm
08:45 69.1 °F /  20.6 °C 61.6 °F /  16.4 °C 30.18in /  1021.9hPa Calm   3.0mph /  4.8km/h 77% 0.00in /  0mm
08:50 69.5 °F /  20.8 °C 61.2 °F /  16.2 °C 30.18in /  1021.9hPa Calm   5.0mph /  8km/h 75% 0.00in /  0mm
08:55 69.3 °F /  20.7 °C 60.3 °F /  15.7 °C 30.18in /  1021.9hPa SW 2.0mph /  3.2km/h 7.0mph /  11.3km/h 73% 0.00in /  0mm
09:00 69.4 °F /  20.8 °C 60.4 °F /  15.8 °C 30.18in /  1021.9hPa SW 2.0mph /  3.2km/h 7.0mph /  11.3km/h 73% 0.00in /  0mm
09:05 69.5 °F /  20.8 °C 60.1 °F /  15.6 °C 30.18in /  1021.9hPa SW 1.0mph /  1.6km/h 6.0mph /  9.7km/h 72% 0.00in /  0mm
09:10 69.7 °F /  20.9 °C 59.9 °F /  15.5 °C 30.18in /  1021.9hPa Calm   7.0mph /  11.3km/h 71% 0.00in /  0mm
09:15 69.9 °F /  21.1 °C 59.3 °F /  15.2 °C 30.18in /  1021.9hPa Calm   7.0mph /  11.3km/h 69% 0.00in /  0mm
09:20 70.6 °F /  21.4 °C 61.9 °F /  16.6 °C 30.18in /  1021.9hPa Calm   5.0mph /  8km/h 74% 0.00in /  0mm
09:25 71.5 °F /  21.9 °C 61.2 °F /  16.2 °C 30.18in /  1021.9hPa Calm   5.0mph /  8km/h 70% 0.00in /  0mm
09:30 72.0 °F /  22.2 °C 61.3 °F /  16.3 °C 30.18in /  1021.9hPa Calm   1.0mph /  1.6km/h 69% 0.00in /  0mm
09:35 72.5 °F /  22.5 °C 61.4 °F /  16.3 °C 30.18in /  1021.9hPa SSW 1.0mph /  1.6km/h 4.0mph /  6.4km/h 68% 0.00in /  0mm
09:40 72.5 °F /  22.5 °C 60.5 °F /  15.8 °C 30.18in /  1021.9hPa Calm   7.0mph /  11.3km/h 66% 0.00in /  0mm
09:45 72.4 °F /  22.4 °C 60.0 °F /  15.6 °C 30.18in /  1021.9hPa South 1.0mph /  1.6km/h 7.0mph /  11.3km/h 65% 0.00in /  0mm
09:50 72.4 °F /  22.4 °C 60.0 °F /  15.6 °C 30.18in /  1021.9hPa Calm   4.0mph /  6.4km/h 65% 0.00in /  0mm
10:00 73.7 °F /  23.2 °C 62.5 °F /  16.9 °C 30.17in /  1021.6hPa Calm   7.0mph /  11.3km/h 68% 0.00in /  0mm
10:05 73.9 °F /  23.3 °C 62.3 °F /  16.8 °C 30.17in /  1021.6hPa Calm   7.0mph /  11.3km/h 67% 0.00in /  0mm
10:10 74.0 °F /  23.3 °C 60.6 °F /  15.9 °C 30.17in /  1021.6hPa Calm   5.0mph /  8km/h 63% 0.00in /  0mm
10:15 73.9 °F /  23.3 °C 60.5 °F /  15.8 °C 30.17in /  1021.6hPa Calm   4.0mph /  6.4km/h 63% 0.00in /  0mm
10:20 74.0 °F /  23.3 °C 60.6 °F /  15.9 °C 30.17in /  1021.6hPa Calm   4.0mph /  6.4km/h 63% 0.00in /  0mm
10:25 74.0 °F /  23.3 °C 61.1 °F /  16.2 °C 30.17in /  1021.6hPa Calm   1.0mph /  1.6km/h 64% 0.00in /  0mm
10:30 74.4 °F /  23.6 °C 64.0 °F /  17.8 °C 30.17in /  1021.6hPa Calm   5.0mph /  8km/h 70% 0.00in /  0mm
10:40 74.1 °F /  23.4 °C 59.8 °F /  15.4 °C 30.17in /  1021.6hPa Calm   5.0mph /  8km/h 61% 0.00in /  0mm
10:45 73.9 °F /  23.3 °C 59.2 °F /  15.1 °C 30.17in /  1021.6hPa Calm   5.0mph /  8km/h 60% 0.00in /  0mm
10:50 74.3 °F /  23.5 °C 62.6 °F /  17 °C 30.17in /  1021.6hPa Calm   4.0mph /  6.4km/h 67% 0.00in /  0mm
10:55 74.8 °F /  23.8 °C 61.8 °F /  16.6 °C 30.17in /  1021.6hPa Calm   1.0mph /  1.6km/h 64% 0.00in /  0mm
11:00 75.2 °F /  24 °C 62.2 °F /  16.8 °C 30.17in /  1021.6hPa SW 3.0mph /  4.8km/h 6.0mph /  9.7km/h 64% 0.00in /  0mm
11:05 75.8 °F /  24.3 °C 63.6 °F /  17.6 °C 30.17in /  1021.6hPa Calm   6.0mph /  9.7km/h 66% 0.00in /  0mm
11:10 76.2 °F /  24.6 °C 63.6 °F /  17.6 °C 30.17in /  1021.6hPa SSW 5.0mph /  8km/h 7.0mph /  11.3km/h 65% 0.00in /  0mm
11:15 76.1 °F /  24.5 °C 61.7 °F /  16.5 °C 30.16in /  1021.2hPa South 1.0mph /  1.6km/h 7.0mph /  11.3km/h 61% 0.00in /  0mm
11:20 76.1 °F /  24.5 °C 62.6 °F /  17 °C 30.16in /  1021.2hPa WSW 5.0mph /  8km/h 9.0mph /  14.5km/h 63% 0.00in /  0mm
11:25 76.2 °F /  24.6 °C 64.0 °F /  17.8 °C 30.16in /  1021.2hPa SSE 1.0mph /  1.6km/h 9.0mph /  14.5km/h 66% 0.00in /  0mm
11:30 76.4 °F /  24.7 °C 63.3 °F /  17.4 °C 30.16in /  1021.2hPa Calm   7.0mph /  11.3km/h 64% 0.00in /  0mm
11:35 76.4 °F /  24.7 °C 62.4 °F /  16.9 °C 30.16in /  1021.2hPa SW 3.0mph /  4.8km/h 7.0mph /  11.3km/h 62% 0.00in /  0mm
11:40 76.5 °F /  24.7 °C 62.5 °F /  16.9 °C 30.16in /  1021.2hPa SSE 1.0mph /  1.6km/h 7.0mph /  11.3km/h 62% 0.00in /  0mm
11:45 76.6 °F /  24.8 °C 63.5 °F /  17.5 °C 30.16in /  1021.2hPa SSE 2.0mph /  3.2km/h 6.0mph /  9.7km/h 64% 0.00in /  0mm
11:50 76.6 °F /  24.8 °C 62.2 °F /  16.8 °C 30.15in /  1020.9hPa SSW 3.0mph /  4.8km/h 8.0mph /  12.9km/h 61% 0.00in /  0mm
11:55 76.9 °F /  24.9 °C 62.4 °F /  16.9 °C 30.15in /  1020.9hPa SSW 1.0mph /  1.6km/h 8.0mph /  12.9km/h 61% 0.00in /  0mm
12:00 77.3 °F /  25.2 °C 60.9 °F /  16.1 °C 30.15in /  1020.9hPa SW 2.0mph /  3.2km/h 8.0mph /  12.9km/h 57% 0.00in /  0mm
12:10 77.4 °F /  25.2 °C 61.5 °F /  16.4 °C 30.15in /  1020.9hPa SSE 1.0mph /  1.6km/h 6.0mph /  9.7km/h 58% 0.00in /  0mm
12:15 77.6 °F /  25.3 °C 61.7 °F /  16.5 °C 30.15in /  1020.9hPa SW 2.0mph /  3.2km/h 7.0mph /  11.3km/h 58% 0.00in /  0mm
12:20 77.8 °F /  25.4 °C 61.4 °F /  16.3 °C 30.15in /  1020.9hPa South 1.0mph /  1.6km/h 7.0mph /  11.3km/h 57% 0.00in /  0mm
12:25 77.9 °F /  25.5 °C 62.0 °F /  16.7 °C 30.14in /  1020.5hPa South 2.0mph /  3.2km/h 7.0mph /  11.3km/h 58% 0.00in /  0mm
12:30 78.1 °F /  25.6 °C 62.6 °F /  17 °C 30.14in /  1020.5hPa SW 1.0mph /  1.6km/h 8.0mph /  12.9km/h 59% 0.00in /  0mm
12:35 78.4 °F /  25.8 °C 59.9 °F /  15.5 °C 30.14in /  1020.5hPa SSW 2.0mph /  3.2km/h 8.0mph /  12.9km/h 53% 0.00in /  0mm
12:40 78.3 °F /  25.7 °C 62.8 °F /  17.1 °C 30.13in /  1020.2hPa SW 2.0mph /  3.2km/h 8.0mph /  12.9km/h 59% 0.00in /  0mm
12:45 78.5 °F /  25.8 °C 62.5 °F /  16.9 °C 30.13in /  1020.2hPa WSW 1.0mph /  1.6km/h 8.0mph /  12.9km/h 58% 0.00in /  0mm
12:50 78.5 °F /  25.8 °C 62.5 °F /  16.9 °C 30.13in /  1020.2hPa SW 4.0mph /  6.4km/h 9.0mph /  14.5km/h 58% 0.00in /  0mm
12:55 78.7 °F /  25.9 °C 60.7 °F /  15.9 °C 30.12in /  1019.9hPa SW 3.0mph /  4.8km/h 9.0mph /  14.5km/h 54% 0.00in /  0mm
13:00 78.4 °F /  25.8 °C 61.4 °F /  16.3 °C 30.13in /  1020.2hPa SW 1.0mph /  1.6km/h 10.0mph /  16.1km/h 56% 0.00in /  0mm
13:05 78.7 °F /  25.9 °C 60.7 °F /  15.9 °C 30.12in /  1019.9hPa South 3.0mph /  4.8km/h 10.0mph /  16.1km/h 54% 0.00in /  0mm
13:10 78.7 °F /  25.9 °C 61.2 °F /  16.2 °C 30.12in /  1019.9hPa SSW 2.0mph /  3.2km/h 7.0mph /  11.3km/h 55% 0.00in /  0mm
13:15 78.9 °F /  26.1 °C 60.3 °F /  15.7 °C 30.12in /  1019.9hPa WSW 3.0mph /  4.8km/h 7.0mph /  11.3km/h 53% 0.00in /  0mm
13:20 79.2 °F /  26.2 °C 62.2 °F /  16.8 °C 30.13in /  1020.2hPa SW 2.0mph /  3.2km/h 7.0mph /  11.3km/h 56% 0.00in /  0mm
13:25 79.6 °F /  26.4 °C 61.0 °F /  16.1 °C 30.12in /  1019.9hPa SSE 1.0mph /  1.6km/h 6.0mph /  9.7km/h 53% 0.00in /  0mm
13:30 79.8 °F /  26.6 °C 62.7 °F /  17.1 °C 30.12in /  1019.9hPa South 2.0mph /  3.2km/h 6.0mph /  9.7km/h 56% 0.00in /  0mm
13:35 80.1 °F /  26.7 °C 64.5 °F /  18.1 °C 30.12in /  1019.9hPa WSW 1.0mph /  1.6km/h 6.0mph /  9.7km/h 59% 0.00in /  0mm
13:45 80.5 °F /  26.9 °C 62.9 °F /  17.2 °C 30.12in /  1019.9hPa Calm   8.0mph /  12.9km/h 55% 0.00in /  0mm
13:50 80.7 °F /  27.1 °C 61.5 °F /  16.4 °C 30.11in /  1019.5hPa SSW 1.0mph /  1.6km/h 8.0mph /  12.9km/h 52% 0.00in /  0mm
13:55 81.0 °F /  27.2 °C 62.3 °F /  16.8 °C 30.11in /  1019.5hPa SW 1.0mph /  1.6km/h 6.0mph /  9.7km/h 53% 0.00in /  0mm
14:00 80.9 °F /  27.2 °C 63.2 °F /  17.3 °C 30.11in /  1019.5hPa Calm   4.0mph /  6.4km/h 55% 0.00in /  0mm
14:05 80.8 °F /  27.1 °C 64.7 °F /  18.2 °C 30.11in /  1019.5hPa SSE 3.0mph /  4.8km/h 8.0mph /  12.9km/h 58% 0.00in /  0mm
14:10 81.0 °F /  27.2 °C 63.3 °F /  17.4 °C 30.11in /  1019.5hPa SSW 2.0mph /  3.2km/h 8.0mph /  12.9km/h 55% 0.00in /  0mm
14:15 81.5 °F /  27.5 °C 62.7 °F /  17.1 °C 30.10in /  1019.2hPa South 1.0mph /  1.6km/h 7.0mph /  11.3km/h 53% 0.00in /  0mm
14:20 81.6 °F /  27.6 °C 61.7 °F /  16.5 °C 30.10in /  1019.2hPa SSW 3.0mph /  4.8km/h 9.0mph /  14.5km/h 51% 0.00in /  0mm
14:25 81.1 °F /  27.3 °C 60.7 °F /  15.9 °C 30.10in /  1019.2hPa SSE 2.0mph /  3.2km/h 9.0mph /  14.5km/h 50% 0.00in /  0mm
14:30 80.9 °F /  27.2 °C 63.8 °F /  17.7 °C 30.10in /  1019.2hPa Calm   6.0mph /  9.7km/h 56% 0.00in /  0mm
14:35 81.1 °F /  27.3 °C 62.4 °F /  16.9 °C 30.10in /  1019.2hPa South 1.0mph /  1.6km/h 5.0mph /  8km/h 53% 0.00in /  0mm
14:40 81.6 °F /  27.6 °C 64.4 °F /  18 °C 30.10in /  1019.2hPa WSW 3.0mph /  4.8km/h 7.0mph /  11.3km/h 56% 0.00in /  0mm
14:45 81.5 °F /  27.5 °C 65.3 °F /  18.5 °C 30.10in /  1019.2hPa South 1.0mph /  1.6km/h 7.0mph /  11.3km/h 58% 0.00in /  0mm
14:50 81.6 °F /  27.6 °C 63.9 °F /  17.7 °C 30.10in /  1019.2hPa SW 2.0mph /  3.2km/h 6.0mph /  9.7km/h 55% 0.00in /  0mm
14:55 81.9 °F /  27.7 °C 63.1 °F /  17.3 °C 30.10in /  1019.2hPa SSW 1.0mph /  1.6km/h 6.0mph /  9.7km/h 53% 0.00in /  0mm
15:00 81.9 °F /  27.7 °C 62.0 °F /  16.7 °C 30.09in /  1018.8hPa Calm   5.0mph /  8km/h 51% 0.00in /  0mm
15:05 82.5 °F /  28.1 °C 63.1 °F /  17.3 °C 30.09in /  1018.8hPa WSW 2.0mph /  3.2km/h 6.0mph /  9.7km/h 52% 0.00in /  0mm
15:10 82.7 °F /  28.2 °C 61.6 °F /  16.4 °C 30.09in /  1018.8hPa Calm   6.0mph /  9.7km/h 49% 0.00in /  0mm
15:15 82.9 °F /  28.3 °C 62.4 °F /  16.9 °C 30.08in /  1018.5hPa Calm   5.0mph /  8km/h 50% 0.00in /  0mm
15:20 82.9 °F /  28.3 °C 63.5 °F /  17.5 °C 30.08in /  1018.5hPa SW 2.0mph /  3.2km/h 5.0mph /  8km/h 52% 0.00in /  0mm
15:25 82.7 °F /  28.2 °C 64.4 °F /  18 °C 30.08in /  1018.5hPa Calm   5.0mph /  8km/h 54% 0.00in /  0mm
15:30 82.5 °F /  28.1 °C 60.9 °F /  16.1 °C 30.08in /  1018.5hPa SW 2.0mph /  3.2km/h 6.0mph /  9.7km/h 48% 0.00in /  0mm
15:35 82.4 °F /  28 °C 63.6 °F /  17.6 °C 30.08in /  1018.5hPa SSE 2.0mph /  3.2km/h 6.0mph /  9.7km/h 53% 0.00in /  0mm
15:40 82.3 °F /  27.9 °C 63.5 °F /  17.5 °C 30.08in /  1018.5hPa Calm   6.0mph /  9.7km/h 53% 0.00in /  0mm
15:45 82.5 °F /  28.1 °C 65.2 °F /  18.4 °C 30.08in /  1018.5hPa Calm   6.0mph /  9.7km/h 56% 0.00in /  0mm
15:50 83.0 °F /  28.3 °C 63.0 °F /  17.2 °C 30.08in /  1018.5hPa West 1.0mph /  1.6km/h 7.0mph /  11.3km/h 51% 0.00in /  0mm
15:55 83.4 °F /  28.6 °C 63.4 °F /  17.4 °C 30.08in /  1018.5hPa SW 1.0mph /  1.6km/h 7.0mph /  11.3km/h 51% 0.00in /  0mm
16:00 83.6 °F /  28.7 °C 60.7 °F /  15.9 °C 30.08in /  1018.5hPa SW 2.0mph /  3.2km/h 5.0mph /  8km/h 46% 0.00in /  0mm
16:05 83.3 °F /  28.5 °C 62.7 °F /  17.1 °C 30.07in /  1018.2hPa Calm   5.0mph /  8km/h 50% 0.00in /  0mm
16:10 83.5 °F /  28.6 °C 62.9 °F /  17.2 °C 30.07in /  1018.2hPa Calm   5.0mph /  8km/h 50% 0.00in /  0mm
16:15 83.3 °F /  28.5 °C 63.3 °F /  17.4 °C 30.07in /  1018.2hPa SW 1.0mph /  1.6km/h 5.0mph /  8km/h 51% 0.00in /  0mm
16:20 83.3 °F /  28.5 °C 62.7 °F /  17.1 °C 30.07in /  1018.2hPa Calm   5.0mph /  8km/h 50% 0.00in /  0mm
16:25 83.6 °F /  28.7 °C 63.6 °F /  17.6 °C 30.07in /  1018.2hPa SW 1.0mph /  1.6km/h 6.0mph /  9.7km/h 51% 0.00in /  0mm
16:30 83.4 °F /  28.6 °C 62.3 °F /  16.8 °C 30.07in /  1018.2hPa Calm   6.0mph /  9.7km/h 49% 0.00in /  0mm
16:35 82.9 °F /  28.3 °C 65.1 °F /  18.4 °C 30.07in /  1018.2hPa Calm   5.0mph /  8km/h 55% 0.00in /  0mm
16:40 82.9 °F /  28.3 °C 61.8 °F /  16.6 °C 30.07in /  1018.2hPa Calm   5.0mph /  8km/h 49% 0.00in /  0mm
16:45 83.1 °F /  28.4 °C 63.1 °F /  17.3 °C 30.07in /  1018.2hPa SW 1.0mph /  1.6km/h 5.0mph /  8km/h 51% 0.00in /  0mm
16:50 83.2 °F /  28.4 °C 62.7 °F /  17.1 °C 30.07in /  1018.2hPa SW 2.0mph /  3.2km/h 7.0mph /  11.3km/h 50% 0.00in /  0mm
16:55 83.4 °F /  28.6 °C 62.8 °F /  17.1 °C 30.07in /  1018.2hPa SSW 1.0mph /  1.6km/h 7.0mph /  11.3km/h 50% 0.00in /  0mm
17:00 83.6 °F /  28.7 °C 61.9 °F /  16.6 °C 30.07in /  1018.2hPa Calm   5.0mph /  8km/h 48% 0.00in /  0mm
17:05 83.6 °F /  28.7 °C 64.7 °F /  18.2 °C 30.07in /  1018.2hPa SSW 1.0mph /  1.6km/h 6.0mph /  9.7km/h 53% 0.00in /  0mm
17:10 83.3 °F /  28.5 °C 63.3 °F /  17.4 °C 30.07in /  1018.2hPa Calm   6.0mph /  9.7km/h 51% 0.00in /  0mm
17:15 83.2 °F /  28.4 °C 62.7 °F /  17.1 °C 30.07in /  1018.2hPa SSE 1.0mph /  1.6km/h 5.0mph /  8km/h 50% 0.00in /  0mm
17:20 82.8 °F /  28.2 °C 61.1 °F /  16.2 °C 30.07in /  1018.2hPa Calm   4.0mph /  6.4km/h 48% 0.00in /  0mm
17:25 82.9 °F /  28.3 °C 65.1 °F /  18.4 °C 30.07in /  1018.2hPa Calm   4.0mph /  6.4km/h 55% 0.00in /  0mm
17:30 82.9 °F /  28.3 °C 61.8 °F /  16.6 °C 30.06in /  1017.8hPa Calm   4.0mph /  6.4km/h 49% 0.00in /  0mm
17:35 83.1 °F /  28.4 °C 63.7 °F /  17.6 °C 30.06in /  1017.8hPa SW 1.0mph /  1.6km/h 5.0mph /  8km/h 52% 0.00in /  0mm
17:40 82.9 °F /  28.3 °C 64.0 °F /  17.8 °C 30.06in /  1017.8hPa Calm   7.0mph /  11.3km/h 53% 0.00in /  0mm
17:45 82.9 °F /  28.3 °C 64.0 °F /  17.8 °C 30.06in /  1017.8hPa Calm   7.0mph /  11.3km/h 53% 0.00in /  0mm
17:55 83.1 °F /  28.4 °C 64.2 °F /  17.9 °C 30.05in /  1017.5hPa Calm   5.0mph /  8km/h 53% 0.00in /  0mm
18:00 83.2 °F /  28.4 °C 66.4 °F /  19.1 °C 30.05in /  1017.5hPa Calm   5.0mph /  8km/h 57% 0.00in /  0mm
18:05 83.5 °F /  28.6 °C 65.1 °F /  18.4 °C 30.05in /  1017.5hPa Calm   1.0mph /  1.6km/h 54% 0.00in /  0mm
18:10 83.4 °F /  28.6 °C 64.5 °F /  18.1 °C 30.05in /  1017.5hPa Calm   4.0mph /  6.4km/h 53% 0.00in /  0mm
18:15 83.4 °F /  28.6 °C 63.4 °F /  17.4 °C 30.05in /  1017.5hPa SW 1.0mph /  1.6km/h 5.0mph /  8km/h 51% 0.00in /  0mm
18:20 83.1 °F /  28.4 °C 63.1 °F /  17.3 °C 30.05in /  1017.5hPa SW 1.0mph /  1.6km/h 6.0mph /  9.7km/h 51% 0.00in /  0mm
18:25 82.7 °F /  28.2 °C 63.9 °F /  17.7 °C 30.05in /  1017.5hPa Calm   6.0mph /  9.7km/h 53% 0.00in /  0mm
18:30 82.7 °F /  28.2 °C 63.9 °F /  17.7 °C 30.04in /  1017.2hPa Calm   1.0mph /  1.6km/h 53% 0.00in /  0mm
18:35 82.6 °F /  28.1 °C 65.8 °F /  18.8 °C 30.04in /  1017.2hPa Calm   1.0mph /  1.6km/h 57% 0.00in /  0mm
18:45 82.6 °F /  28.1 °C 64.8 °F /  18.2 °C 30.04in /  1017.2hPa Calm   1.0mph /  1.6km/h 55% 0.00in /  0mm
18:55 81.8 °F /  27.7 °C 65.6 °F /  18.7 °C 30.03in /  1016.8hPa Calm   1.0mph /  1.6km/h 58% 0.00in /  0mm
19:00 81.3 °F /  27.4 °C 64.1 °F /  17.8 °C 30.03in /  1016.8hPa Calm   1.0mph /  1.6km/h 56% 0.00in /  0mm
19:05 81.0 °F /  27.2 °C 64.9 °F /  18.3 °C 30.03in /  1016.8hPa Calm   4.0mph /  6.4km/h 58% 0.00in /  0mm
19:10 80.7 °F /  27.1 °C 64.1 °F /  17.8 °C 30.03in /  1016.8hPa Calm   4.0mph /  6.4km/h 57% 0.00in /  0mm
19:20 80.5 °F /  26.9 °C 65.4 °F /  18.6 °C 30.03in /  1016.8hPa Calm   3.0mph /  4.8km/h 60% 0.00in /  0mm
19:25 80.2 °F /  26.8 °C 67.8 °F /  19.9 °C 30.03in /  1016.8hPa Calm   3.0mph /  4.8km/h 66% 0.00in /  0mm
19:30 79.6 °F /  26.4 °C 65.9 °F /  18.8 °C 30.02in /  1016.5hPa Calm   1.0mph /  1.6km/h 63% 0.00in /  0mm
19:35 79.1 °F /  26.2 °C 65.9 °F /  18.8 °C 30.02in /  1016.5hPa Calm   1.0mph /  1.6km/h 64% 0.00in /  0mm
19:40 78.5 °F /  25.8 °C 66.2 °F /  19 °C 30.02in /  1016.5hPa Calm   1.0mph /  1.6km/h 66% 0.00in /  0mm
19:45 77.8 °F /  25.4 °C 66.0 °F /  18.9 °C 30.02in /  1016.5hPa Calm   2.0mph /  3.2km/h 67% 0.00in /  0mm
19:50 77.0 °F /  25 °C 64.8 °F /  18.2 °C 30.02in /  1016.5hPa Calm   2.0mph /  3.2km/h 66% 0.00in /  0mm
19:55 76.2 °F /  24.6 °C 65.3 °F /  18.5 °C 30.02in /  1016.5hPa Calm   1.0mph /  1.6km/h 69% 0.00in /  0mm
20:00 75.1 °F /  23.9 °C 65.5 °F /  18.6 °C 30.02in /  1016.5hPa Calm     72% 0.00in /  0mm
20:05 74.0 °F /  23.3 °C 64.4 °F /  18 °C 30.01in /  1016.1hPa Calm   2.0mph /  3.2km/h 72% 0.00in /  0mm
20:15 73.3 °F /  22.9 °C 62.5 °F /  16.9 °C 30.01in /  1016.1hPa Calm   4.0mph /  6.4km/h 69% 0.00in /  0mm
20:20 73.5 °F /  23.1 °C 63.5 °F /  17.5 °C 30.01in /  1016.1hPa Calm   4.0mph /  6.4km/h 71% 0.00in /  0mm
20:25 73.2 °F /  22.9 °C 63.6 °F /  17.6 °C 30.01in /  1016.1hPa Calm   4.0mph /  6.4km/h 72% 0.00in /  0mm
20:30 72.5 °F /  22.5 °C 62.6 °F /  17 °C 30.01in /  1016.1hPa Calm   3.0mph /  4.8km/h 71% 0.00in /  0mm
20:40 71.7 °F /  22.1 °C 61.8 °F /  16.6 °C 30.01in /  1016.1hPa Calm   1.0mph /  1.6km/h 71% 0.00in /  0mm
20:45 71.6 °F /  22 °C 62.1 °F /  16.7 °C 30.01in /  1016.1hPa Calm   3.0mph /  4.8km/h 72% 0.00in /  0mm
20:50 71.6 °F /  22 °C 62.1 °F /  16.7 °C 30.01in /  1016.1hPa SSW 1.0mph /  1.6km/h 5.0mph /  8km/h 72% 0.00in /  0mm
20:55 71.5 °F /  21.9 °C 62.0 °F /  16.7 °C 30.01in /  1016.1hPa Calm   5.0mph /  8km/h 72% 0.00in /  0mm
21:00 71.4 °F /  21.9 °C 61.5 °F /  16.4 °C 30.01in /  1016.1hPa Calm   4.0mph /  6.4km/h 71% 0.00in /  0mm
21:05 71.5 °F /  21.9 °C 61.6 °F /  16.4 °C 30.00in /  1015.8hPa Calm   5.0mph /  8km/h 71% 0.00in /  0mm
21:10 71.4 °F /  21.9 °C 61.5 °F /  16.4 °C 30.00in /  1015.8hPa SSW 1.0mph /  1.6km/h 5.0mph /  8km/h 71% 0.00in /  0mm
21:15 71.3 °F /  21.8 °C 61.4 °F /  16.3 °C 30.00in /  1015.8hPa Calm   3.0mph /  4.8km/h 71% 0.00in /  0mm
21:20 71.2 °F /  21.8 °C 61.3 °F /  16.3 °C 30.00in /  1015.8hPa Calm   2.0mph /  3.2km/h 71% 0.00in /  0mm
21:25 71.2 °F /  21.8 °C 60.9 °F /  16.1 °C 30.00in /  1015.8hPa Calm   3.0mph /  4.8km/h 70% 0.00in /  0mm
21:30 71.2 °F /  21.8 °C 61.3 °F /  16.3 °C 30.00in /  1015.8hPa Calm   3.0mph /  4.8km/h 71% 0.00in /  0mm
21:35 71.2 °F /  21.8 °C 61.3 °F /  16.3 °C 30.00in /  1015.8hPa Calm   5.0mph /  8km/h 71% 0.00in /  0mm
21:40 71.1 °F /  21.7 °C 61.2 °F /  16.2 °C 30.00in /  1015.8hPa Calm   5.0mph /  8km/h 71% 0.00in /  0mm
21:45 70.9 °F /  21.6 °C 61.0 °F /  16.1 °C 30.00in /  1015.8hPa Calm   2.0mph /  3.2km/h 71% 0.00in /  0mm
21:50 70.7 °F /  21.5 °C 60.8 °F /  16 °C 30.00in /  1015.8hPa SSW 1.0mph /  1.6km/h 4.0mph /  6.4km/h 71% 0.00in /  0mm
21:55 70.8 °F /  21.6 °C 61.3 °F /  16.3 °C 30.00in /  1015.8hPa Calm   4.0mph /  6.4km/h 72% 0.00in /  0mm
22:05 71.0 °F /  21.7 °C 61.1 °F /  16.2 °C 30.00in /  1015.8hPa SSW 1.0mph /  1.6km/h 6.0mph /  9.7km/h 71% 0.00in /  0mm
22:10 71.2 °F /  21.8 °C 61.3 °F /  16.3 °C 30.00in /  1015.8hPa SSW 1.0mph /  1.6km/h 6.0mph /  9.7km/h 71% 0.00in /  0mm
22:15 71.1 °F /  21.7 °C 60.8 °F /  16 °C 29.99in /  1015.5hPa Calm   5.0mph /  8km/h 70% 0.00in /  0mm
22:20 71.2 °F /  21.8 °C 60.9 °F /  16.1 °C 29.99in /  1015.5hPa SSW 4.0mph /  6.4km/h 7.0mph /  11.3km/h 70% 0.00in /  0mm
22:25 71.2 °F /  21.8 °C 61.3 °F /  16.3 °C 29.99in /  1015.5hPa SSW 3.0mph /  4.8km/h 7.0mph /  11.3km/h 71% 0.00in /  0mm
22:30 71.2 °F /  21.8 °C 61.3 °F /  16.3 °C 29.99in /  1015.5hPa SSW 1.0mph /  1.6km/h 5.0mph /  8km/h 71% 0.00in /  0mm
22:35 71.1 °F /  21.7 °C 60.8 °F /  16 °C 29.99in /  1015.5hPa SSW 1.0mph /  1.6km/h 5.0mph /  8km/h 70% 0.00in /  0mm
22:45 71.1 °F /  21.7 °C 60.8 °F /  16 °C 29.98in /  1015.1hPa SSW 2.0mph /  3.2km/h 7.0mph /  11.3km/h 70% 0.00in /  0mm
22:50 71.2 °F /  21.8 °C 60.9 °F /  16.1 °C 29.98in /  1015.1hPa SSW 2.0mph /  3.2km/h 9.0mph /  14.5km/h 70% 0.00in /  0mm
22:55 71.3 °F /  21.8 °C 61.0 °F /  16.1 °C 29.98in /  1015.1hPa SW 2.0mph /  3.2km/h 9.0mph /  14.5km/h 70% 0.00in /  0mm
23:00 71.3 °F /  21.8 °C 61.0 °F /  16.1 °C 29.98in /  1015.1hPa SSW 3.0mph /  4.8km/h 9.0mph /  14.5km/h 70% 0.00in /  0mm
23:10 71.8 °F /  22.1 °C 60.7 °F /  15.9 °C 29.98in /  1015.1hPa SSW 2.0mph /  3.2km/h 10.0mph /  16.1km/h 68% 0.00in /  0mm
23:15 72.0 °F /  22.2 °C 60.9 °F /  16.1 °C 29.97in /  1014.8hPa SSW 5.0mph /  8km/h 10.0mph /  16.1km/h 68% 0.00in /  0mm
23:20 72.3 °F /  22.4 °C 61.2 °F /  16.2 °C 29.97in /  1014.8hPa SW 1.0mph /  1.6km/h 11.0mph /  17.7km/h 68% 0.00in /  0mm
23:25 72.2 °F /  22.3 °C 61.1 °F /  16.2 °C 29.97in /  1014.8hPa SSW 3.0mph /  4.8km/h 12.0mph /  19.3km/h 68% 0.00in /  0mm
23:30 72.2 °F /  22.3 °C 61.1 °F /  16.2 °C 29.97in /  1014.8hPa SSW 3.0mph /  4.8km/h 12.0mph /  19.3km/h 68% 0.00in /  0mm
23:35 72.2 °F /  22.3 °C 61.1 °F /  16.2 °C 29.97in /  1014.8hPa SSW 3.0mph /  4.8km/h 8.0mph /  12.9km/h 68% 0.00in /  0mm
23:40 72.2 °F /  22.3 °C 61.1 °F /  16.2 °C 29.97in /  1014.8hPa SSW 2.0mph /  3.2km/h 8.0mph /  12.9km/h 68% 0.00in /  0mm
23:45 72.2 °F /  22.3 °C 61.5 °F /  16.4 °C 29.97in /  1014.8hPa SSW 3.0mph /  4.8km/h 9.0mph /  14.5km/h 69% 0.00in /  0mm
23:50 72.2 °F /  22.3 °C 61.5 °F /  16.4 °C 29.96in /  1014.4hPa SSW 3.0mph /  4.8km/h 9.0mph /  14.5km/h 69% 0.00in /  0mm
23:55 72.0 °F /  22.2 °C 61.7 °F /  16.5 °C 29.96in /  1014.4hPa SSW 3.0mph /  4.8km/h 8.0mph /  12.9km/h 70% 0.00in /  0mm
Westford Weather
Compliments of Weather Underground

 
 
Current Radar Loop:

Copyright © WestfordWeather.net 2007-2014. All rights reserved.